This is the latest recevied weather packets stored in our database for station/object N2RDT. If no packets are shown the sender has not sent any weather packets the latest 10 day(s).
| Time | Temp. | Humidity | Pressure | Rain* | Wind** | Luminosity | Snow |
|---|---|---|---|---|---|---|---|
| 1778015425 | 26.11° C | 39% | 1014.7 hPa | 0 mm | - | 182 W/m² | - |
| 1778015122 | 26.67° C | 39% | 1014.4 hPa | 0 mm | - | 228 W/m² | - |
| 1778014820 | 26.67° C | 38% | 1014.7 hPa | 0 mm | - | 522 W/m² | - |
| 1778014518 | 26.11° C | 39% | 1014.7 hPa | 0 mm | - | 500 W/m² | - |
| 1778014214 | 26.11° C | 39% | 1014.7 hPa | 0 mm | - | 525 W/m² | - |
| 1778013912 | 26.67° C | 37% | 1014.8 hPa | 0 mm | - | 310 W/m² | - |
| 1778013609 | 26.67° C | 37% | 1014.8 hPa | 0 mm | - | 626 W/m² | - |
| 1778013306 | 26.67° C | 38% | 1014.7 hPa | 0 mm | - | 611 W/m² | - |
| 1778013002 | 27.22° C | 37% | 1014.7 hPa | 0 mm | - | 649 W/m² | - |
| 1778012699 | 26.67° C | 37% | 1014.7 hPa | 0 mm | - | 670 W/m² | - |
| 1778012394 | 26.67° C | 37% | 1014.7 hPa | 0 mm | - | 683 W/m² | - |
| 1778012092 | 26.67° C | 39% | 1014.8 hPa | 0 mm | - | 699 W/m² | - |
| 1778011789 | 25.56° C | 41% | 1014.9 hPa | 0 mm | - | 692 W/m² | - |
| 1778011487 | 26.67° C | 38% | 1014.9 hPa | 0 mm | - | 358 W/m² | - |
| 1778011183 | 26.67° C | 38% | 1014.7 hPa | 0 mm | - | 520 W/m² | - |
| 1778010880 | 26.67° C | 39% | 1015 hPa | 0 mm | - | 643 W/m² | - |
| 1778010577 | 26.67° C | 38% | 1015.2 hPa | 0 mm | - | 737 W/m² | - |
| 1778010275 | 26.11° C | 41% | 1015.4 hPa | 0 mm | - | 742 W/m² | - |
| 1778009974 | 26.11° C | 39% | 1015.4 hPa | 0 mm | - | 371 W/m² | - |
| 1778009672 | 26.67° C | 39% | 1015.2 hPa | 0 mm | - | 354 W/m² | - |
| 1778009370 | 26.67° C | 38% | 1015.5 hPa | 0 mm | - | 889 W/m² | - |
| 1778009063 | 26.67° C | 41% | 1015.4 hPa | 0 mm | - | 855 W/m² | - |
| 1778008760 | 25.56° C | 41% | 1015.7 hPa | 0 mm | - | 677 W/m² | - |
| 1778008459 | 26.11° C | 41% | 1015.6 hPa | 0 mm | - | 477 W/m² | - |
| 1778008155 | 26.67° C | 39% | 1015.8 hPa | 0 mm | - | 544 W/m² | - |
* Rain latest hour (hover to see other rain measurements)
** Current wind speed in m/s (hover to see current wind gust speed)